Terminal Aerodrome Forecast
Issued by NWS

Home | Current Version | Previous Version | Text Only | Print | Product List | Glossary On
Versions: 1 2 3 4 5 6 7 8 9 10 11 12 13
505
FTUS45 KRIW 201720
TAFCPR
TAF
KCPR 201720Z 2018/2118 21009KT P6SM SCT110 BKN200
     FM210200 18008KT P6SM FEW110 BKN150
     FM211000 26006KT P6SM SCT150
     FM211400 02009KT P6SM FEW150=

USA.gov is the U.S. government's official web portal to all federal, state and local government web resources and services.